Time;durP1;ratioP1;P1;durP2;ratioP2;P2;SDS_P1;SDS_P2;PMS_P1;PMS_P2;Temp;Humidity;BMP_temperature;BMP_pressure;BME280_temperature;BME280_humidity;BME280_pressure;Samples;Min_cycle;Max_cycle;Signal;HPM_P1;HPM_P2
2022/04/01 00:01:38;;;;;;;5.93;3.20;;;;;;;0.16;96.72;100546.38;5095404;28;20020;-67
2022/04/01 00:04:03;;;;;;;4.88;3.30;;;;;;;0.20;97.22;100544.38;5077460;28;20024;-67
2022/04/01 00:06:28;;;;;;;8.32;3.17;;;;;;;0.13;97.61;100546.63;5077337;28;20575;-67
2022/04/01 00:08:54;;;;;;;4.85;3.20;;;;;;;0.10;96.64;100551.16;5095510;28;20120;-67
2022/04/01 00:11:19;;;;;;;7.88;3.30;;;;;;;-0.01;96.71;100546.94;5095332;28;20027;-67
2022/04/01 00:13:45;;;;;;;4.80;3.40;;;;;;;0.01;97.51;100547.63;5095288;28;20047;-67
2022/04/01 00:16:10;;;;;;;3.90;2.85;;;;;;;0.12;97.34;100549.31;5095259;28;20028;-67
2022/04/01 00:18:35;;;;;;;4.88;3.15;;;;;;;0.11;97.30;100555.31;5095215;28;20016;-67
2022/04/01 00:21:01;;;;;;;5.35;3.10;;;;;;;0.08;97.37;100563.19;5095073;28;20093;-66
2022/04/01 00:23:26;;;;;;;4.22;3.22;;;;;;;0.04;96.97;100554.22;5076882;28;20048;-67
2022/04/01 00:25:51;;;;;;;5.15;3.40;;;;;;;-0.03;97.13;100557.25;5077018;28;20052;-67
2022/04/01 00:28:17;;;;;;;5.88;3.20;;;;;;;0.09;96.99;100567.34;5095059;28;20536;-67
2022/04/01 00:30:42;;;;;;;5.13;3.20;;;;;;;0.08;96.72;100565.72;5094975;28;20031;-67
2022/04/01 00:33:08;;;;;;;5.25;3.17;;;;;;;0.01;96.80;100567.16;5094929;28;20028;-67
2022/04/01 00:35:34;;;;;;;4.72;3.00;;;;;;;-0.06;96.91;100565.13;5094884;28;20394;-67
2022/04/01 00:38:00;;;;;;;5.30;3.10;;;;;;;-0.05;96.62;100576.88;5094880;28;20096;-67
2022/04/01 00:40:25;;;;;;;3.97;2.67;;;;;;;-0.13;97.15;100573.34;5094688;28;20115;-68
2022/04/01 00:42:50;;;;;;;7.10;3.08;;;;;;;-0.08;96.88;100581.41;5094698;28;20093;-67
2022/04/01 00:45:16;;;;;;;4.80;3.05;;;;;;;-0.04;96.91;100581.03;5076476;28;20035;-67
2022/04/01 00:47:42;;;;;;;4.95;3.03;;;;;;;-0.16;97.02;100574.38;5094938;28;20497;-68
2022/04/01 00:50:08;;;;;;;3.63;2.67;;;;;;;-0.22;97.18;100579.16;5094621;28;20103;-67
2022/04/01 00:52:34;;;;;;;6.43;3.20;;;;;;;-0.13;97.23;100581.75;5094390;28;20092;-67
2022/04/01 00:55:00;;;;;;;4.95;3.30;;;;;;;-0.06;97.23;100582.91;5094527;28;20063;-68
2022/04/01 00:57:26;;;;;;;4.90;3.15;;;;;;;-0.04;97.14;100590.38;5094376;28;20527;-67
2022/04/01 00:59:54;;;;;;;5.03;3.20;;;;;;;0.17;97.24;100586.13;5094474;28;20490;-67
2022/04/01 01:02:20;;;;;;;5.18;3.20;;;;;;;0.18;96.71;100589.47;5094308;28;20555;-67
2022/04/01 01:04:46;;;;;;;5.05;3.20;;;;;;;0.15;96.41;100587.19;5094346;28;20024;-67
2022/04/01 01:07:12;;;;;;;6.03;2.97;;;;;;;-0.03;96.46;100589.44;5094298;28;20031;-67
2022/04/01 01:09:38;;;;;;;6.78;3.63;;;;;;;-0.09;96.65;100593.28;5075202;28;20031;-68
2022/04/01 01:12:06;;;;;;;5.10;2.95;;;;;;;0.20;97.03;100602.84;5094195;28;20107;-68
2022/04/01 01:14:36;;;;;;;4.03;2.83;;;;;;;0.11;96.50;100588.34;5094130;28;20012;-68
2022/04/01 01:17:05;;;;;;;4.88;2.80;;;;;;;0.06;96.52;100592.97;5094091;28;20463;-68
2022/04/01 01:19:30;;;;;;;6.28;3.20;;;;;;;0.02;96.59;100596.72;5093897;28;20529;-69
2022/04/01 01:21:56;;;;;;;4.65;3.03;;;;;;;0.13;96.57;100594.91;5093792;28;20028;-68
2022/04/01 01:24:27;;;;;;;7.68;3.35;;;;;;;0.04;96.25;100594.88;5075727;28;20077;-68
2022/04/01 01:26:54;;;;;;;4.40;2.90;;;;;;;0.03;96.43;100590.69;5093875;28;20221;-68
2022/04/01 01:29:26;;;;;;;5.88;4.00;;;;;;;0.02;96.82;100599.25;5093837;28;20479;-69
2022/04/01 01:31:53;;;;;;;5.35;3.42;;;;;;;-0.05;96.76;100606.56;5075615;28;20028;-68
2022/04/01 01:34:18;;;;;;;5.57;3.33;;;;;;;-0.09;96.60;100607.72;5093735;28;20031;-68
2022/04/01 01:36:44;;;;;;;4.00;2.88;;;;;;;-0.05;96.97;100607.38;5093702;28;20031;-68
2022/04/01 01:39:09;;;;;;;4.43;3.22;;;;;;;-0.08;97.40;100605.06;5093652;28;20360;-68
2022/04/01 01:41:34;;;;;;;5.88;3.33;;;;;;;0.05;97.56;100606.63;5093423;28;20082;-68
2022/04/01 01:44:00;;;;;;;8.98;3.70;;;;;;;-0.01;97.11;100600.28;5093691;28;20028;-68
2022/04/01 01:46:26;;;;;;;5.88;3.20;;;;;;;-0.02;96.76;100613.94;5075445;28;20506;-68
2022/04/01 01:48:51;;;;;;;5.15;3.20;;;;;;;-0.06;96.77;100610.84;5093521;28;20491;-67
2022/04/01 01:56:45;;;;;;;7.93;3.30;;;;;;;-0.02;96.88;100612.19;5093744;28;20069;-67
2022/04/01 01:59:11;;;;;;;5.10;3.50;;;;;;;-0.04;96.38;100616.59;5093351;28;20110;-67
2022/04/01 02:01:38;;;;;;;6.13;3.50;;;;;;;-0.01;96.83;100618.09;5093270;28;20453;-67
2022/04/01 02:04:03;;;;;;;5.28;3.38;;;;;;;0.04;96.50;100615.19;5075169;28;20023;-68
2022/04/01 02:06:29;;;;;;;7.32;3.78;;;;;;;0.03;96.79;100616.94;5075151;28;20530;-68
2022/04/01 02:08:55;;;;;;;7.03;3.63;;;;;;;-0.06;96.49;100633.72;5093416;28;20027;-67
2022/04/01 02:11:21;;;;;;;7.57;4.00;;;;;;;0.03;96.88;100624.56;5093050;28;20058;-67
2022/04/01 02:13:47;;;;;;;5.32;3.50;;;;;;;0.12;96.68;100617.94;5093146;28;20049;-67
2022/04/01 02:16:14;;;;;;;4.97;3.28;;;;;;;-0.08;96.42;100627.94;5093182;28;20028;-67
2022/04/01 02:18:40;;;;;;;7.40;3.70;;;;;;;0.14;96.44;100623.66;5093314;28;20051;-67
2022/04/01 02:21:10;;;;;;;6.00;3.38;;;;;;;0.03;96.63;100621.19;5092880;28;20032;-66
2022/04/01 02:23:39;;;;;;;4.25;3.15;;;;;;;-0.04;95.96;100623.41;5093164;28;20039;-68
2022/04/01 02:26:05;;;;;;;6.70;3.33;;;;;;;-0.04;96.52;100634.38;5075022;28;20097;-67
2022/04/01 02:28:31;;;;;;;8.60;3.55;;;;;;;-0.02;96.15;100634.25;5093061;28;20471;-67
2022/04/01 02:30:56;;;;;;;5.50;3.05;;;;;;;-0.08;96.12;100639.84;5074865;28;20023;-66
2022/04/01 02:33:21;;;;;;;5.32;3.40;;;;;;;-0.01;96.32;100641.75;5093092;28;20024;-68
2022/04/01 02:35:47;;;;;;;4.82;3.15;;;;;;;-0.06;96.15;100645.56;5074906;28;20028;-67
2022/04/01 02:38:12;;;;;;;5.68;3.35;;;;;;;-0.06;96.73;100643.03;5093017;28;20024;-67
2022/04/01 02:40:37;;;;;;;5.55;3.60;;;;;;;-0.02;97.39;100649.50;5092914;28;20032;-67
2022/04/01 02:43:03;;;;;;;5.40;3.55;;;;;;;-0.06;97.12;100651.50;5093024;28;20067;-67
2022/04/01 02:45:28;;;;;;;7.18;3.60;;;;;;;0.01;96.59;100653.53;5074852;28;20023;-67
2022/04/01 02:47:53;;;;;;;4.70;3.10;;;;;;;-0.02;97.10;100652.84;5092875;28;20028;-67
2022/04/01 02:50:20;;;;;;;9.15;3.47;;;;;;;-0.01;96.48;100648.56;5092778;28;20425;-67
2022/04/01 02:52:45;;;;;;;5.03;3.28;;;;;;;-0.13;96.03;100647.81;5075073;28;20078;-67
2022/04/01 02:55:11;;;;;;;7.55;3.67;;;;;;;-0.02;96.43;100657.13;5093426;28;20024;-67
2022/04/01 02:57:36;;;;;;;5.30;3.22;;;;;;;-0.07;96.44;100662.56;5092782;28;20458;-68
2022/04/01 03:00:09;;;;;;;5.53;3.10;;;;;;;-0.10;96.36;100665.34;5074548;28;20034;-67
2022/04/01 03:02:34;;;;;;;6.03;3.10;;;;;;;-0.21;96.53;100654.41;5074650;28;20027;-67
2022/04/01 03:04:59;;;;;;;5.20;3.50;;;;;;;-0.11;97.00;100662.94;5092721;28;20397;-67
2022/04/01 03:07:25;;;;;;;4.88;3.45;;;;;;;0.02;97.12;100663.56;5074558;28;20059;-68
2022/04/01 03:09:50;;;;;;;7.18;3.88;;;;;;;-0.17;96.53;100663.41;5092610;28;20524;-67
2022/04/01 03:12:16;;;;;;;5.15;3.67;;;;;;;0.02;96.79;100670.38;5074479;28;20028;-67
2022/04/01 03:14:41;;;;;;;9.07;3.40;;;;;;;0.10;96.24;100676.47;5074513;28;20032;-67
2022/04/01 03:17:08;;;;;;;7.38;3.47;;;;;;;-0.12;95.95;100684.16;5092521;28;20463;-68
2022/04/01 03:19:35;;;;;;;5.72;3.60;;;;;;;0.02;95.68;100683.09;5074396;28;20165;-67
2022/04/01 03:22:00;;;;;;;7.03;3.97;;;;;;;-0.03;95.91;100683.44;5074379;28;20036;-68
2022/04/01 03:24:26;;;;;;;5.72;3.35;;;;;;;0.08;96.12;100692.78;5092553;28;20020;-68
2022/04/01 03:26:51;;;;;;;10.38;3.55;;;;;;;0.06;95.59;100702.25;5074271;28;20024;-67
2022/04/01 03:29:16;;;;;;;6.15;3.90;;;;;;;0.00;96.34;100698.47;5074339;28;20039;-68
2022/04/01 03:31:42;;;;;;;7.03;3.50;;;;;;;0.09;96.23;100702.03;5074350;28;20016;-67
2022/04/01 03:34:08;;;;;;;11.00;3.88;;;;;;;0.03;95.79;100700.78;5095265;28;20016;-68
2022/04/01 03:36:33;;;;;;;6.18;3.88;;;;;;;0.00;96.23;100701.00;5096106;28;20036;-68
2022/04/01 03:38:59;;;;;;;5.38;3.60;;;;;;;0.03;96.11;100703.31;5077914;28;20504;-68
2022/04/01 03:41:25;;;;;;;7.80;3.92;;;;;;;0.06;96.31;100710.69;5095862;28;20115;-67
2022/04/01 03:43:52;;;;;;;7.70;3.67;;;;;;;0.10;95.73;100709.50;5095951;28;20035;-68
2022/04/01 03:46:20;;;;;;;5.90;3.53;;;;;;;0.04;95.91;100719.38;5096122;28;20110;-67
2022/04/01 03:48:52;;;;;;;5.70;3.55;;;;;;;-0.01;95.45;100709.53;5095836;28;20027;-67
2022/04/01 03:51:25;;;;;;;5.75;3.70;;;;;;;0.09;95.66;100718.06;5095597;28;20074;-68
2022/04/01 03:53:57;;;;;;;6.53;3.53;;;;;;;0.09;95.44;100715.53;5077640;28;20026;-68
2022/04/01 03:56:29;;;;;;;6.53;3.75;;;;;;;0.27;95.48;100722.63;5095703;28;20048;-68
2022/04/01 03:59:02;;;;;;;8.38;4.05;;;;;;;0.19;95.54;100720.69;5077414;28;20034;-68
2022/04/01 04:01:27;;;;;;;6.20;3.70;;;;;;;0.28;95.04;100716.63;5077888;28;20028;-68
2022/04/01 04:03:54;;;;;;;9.10;4.05;;;;;;;0.26;95.17;100723.53;5095503;28;20474;-67
2022/04/01 04:06:19;;;;;;;5.93;3.58;;;;;;;0.18;95.26;100722.44;5095696;28;20016;-68
2022/04/01 04:08:46;;;;;;;7.75;3.60;;;;;;;0.12;95.54;100730.53;5095358;28;20547;-67
2022/04/01 04:11:11;;;;;;;7.32;3.90;;;;;;;0.20;95.50;100733.28;5077271;28;20043;-67
2022/04/01 04:13:37;;;;;;;5.32;3.70;;;;;;;0.19;95.30;100733.41;5095385;28;20062;-67
2022/04/01 04:16:24;;;;;;;6.38;3.88;;;;;;;0.15;95.33;100743.00;5095349;28;20479;-69
2022/04/01 04:19:09;;;;;;;8.85;3.90;;;;;;;0.10;95.82;100737.47;5095170;28;20028;-68
2022/04/01 04:21:49;;;;;;;5.78;3.35;;;;;;;0.07;95.31;100745.34;5095161;28;20028;-67
2022/04/01 04:24:19;;;;;;;4.78;2.65;;;;;;;0.06;95.34;100753.91;5076934;28;20030;-67
2022/04/01 04:26:47;;;;;;;8.15;3.30;;;;;;;0.12;95.40;100753.41;5095146;28;20062;-67
2022/04/01 04:29:14;;;;;;;5.75;3.38;;;;;;;0.11;95.23;100748.44;5095045;28;20028;-67
2022/04/01 04:31:57;;;;;;;7.00;3.22;;;;;;;-0.04;95.25;100768.22;5094920;28;20052;-67
2022/04/01 04:34:27;;;;;;;7.00;4.07;;;;;;;-0.09;95.92;100763.47;5094957;28;20105;-67
2022/04/01 04:36:57;;;;;;;5.78;3.22;;;;;;;-0.06;96.01;100760.72;5094821;28;20073;-67
2022/04/01 04:39:33;;;;;;;9.10;3.63;;;;;;;0.02;95.63;100766.94;5094861;28;20016;-68
2022/04/01 04:42:01;;;;;;;6.07;3.10;;;;;;;-0.04;95.51;100770.75;5094929;28;20460;-67
2022/04/01 04:44:29;;;;;;;6.95;3.50;;;;;;;0.08;95.69;100769.00;5094547;28;20045;-68
2022/04/01 04:46:55;;;;;;;7.32;3.20;;;;;;;0.16;95.24;100761.59;5076512;28;20024;-68
2022/04/01 04:49:21;;;;;;;5.22;2.97;;;;;;;0.10;94.33;100775.59;5076318;28;20028;-67
2022/04/01 04:51:48;;;;;;;5.22;3.10;;;;;;;0.08;94.97;100777.44;5094278;28;20044;-68
2022/04/01 04:54:14;;;;;;;5.85;3.17;;;;;;;0.09;95.21;100793.50;5094476;28;20544;-67
2022/04/01 04:56:41;;;;;;;4.85;2.90;;;;;;;0.08;94.71;100791.88;5076394;28;20035;-67
2022/04/01 04:59:08;;;;;;;4.63;2.83;;;;;;;0.15;94.18;100793.81;5076151;28;20052;-68
2022/04/01 05:01:38;;;;;;;5.78;3.17;;;;;;;0.10;94.05;100795.13;5094295;28;20070;-67
2022/04/01 05:04:26;;;;;;;6.80;2.70;;;;;;;0.11;93.95;100807.69;5094429;28;20036;-68
2022/04/01 05:07:13;;;;;;;4.53;2.88;;;;;;;0.14;94.32;100814.25;5094220;28;20028;-68
2022/04/01 05:10:02;;;;;;;5.88;2.70;;;;;;;0.18;94.37;100810.59;5094323;28;20032;-67
2022/04/01 05:12:33;;;;;;;4.80;2.42;;;;;;;0.19;93.24;100824.91;5075958;28;20027;-67
2022/04/01 05:14:59;;;;;;;4.28;2.58;;;;;;;0.32;93.01;100824.78;5075112;28;20035;-68
2022/04/01 05:17:35;;;;;;;5.13;2.80;;;;;;;0.18;93.36;100828.38;5092912;28;20043;-68
2022/04/01 05:20:02;;;;;;;4.63;3.00;;;;;;;0.08;93.33;100835.06;5091926;28;20150;-67
2022/04/01 05:22:47;;;;;;;5.25;2.75;;;;;;;0.14;93.92;100847.31;5092426;28;20035;-68
2022/04/01 05:25:17;;;;;;;5.93;2.80;;;;;;;0.21;93.21;100840.84;5091935;28;20240;-68
2022/04/01 05:27:47;;;;;;;4.35;2.67;;;;;;;0.19;92.34;100850.31;5057251;28;20117;-67
2022/04/01 05:30:16;;;;;;;6.03;2.55;;;;;;;0.11;91.78;100842.47;5074654;28;20023;-68
2022/04/01 05:32:58;;;;;;;4.88;2.50;;;;;;;0.17;91.91;100857.22;5073187;28;20040;-68
2022/04/01 05:35:31;;;;;;;7.80;3.33;;;;;;;0.12;91.87;100862.69;5074318;28;20020;-69
2022/04/01 05:37:59;;;;;;;5.38;2.90;;;;;;;0.22;91.68;100862.78;5075227;28;20471;-68
2022/04/01 05:40:26;;;;;;;4.57;2.45;;;;;;;0.09;92.18;100862.91;5075226;28;20020;-66
2022/04/01 05:42:52;;;;;;;5.95;2.75;;;;;;;0.20;92.29;100875.63;5093403;28;20081;-65
2022/04/01 05:45:19;;;;;;;5.03;2.72;;;;;;;0.17;92.14;100873.31;5093452;28;20016;-66
2022/04/01 05:47:47;;;;;;;5.25;2.92;;;;;;;0.02;92.18;100877.00;5074584;28;20078;-69
2022/04/01 05:50:18;;;;;;;4.32;2.80;;;;;;;0.20;93.05;100890.88;5075263;28;20016;-67
2022/04/01 05:52:46;;;;;;;4.53;2.92;;;;;;;0.21;92.08;100902.66;5093350;28;20127;-67
2022/04/01 05:55:14;;;;;;;4.63;2.50;;;;;;;0.03;92.93;100896.44;5093043;28;20036;-66
2022/04/01 05:57:39;;;;;;;5.63;2.70;;;;;;;0.29;92.97;100903.78;5093190;28;20475;-66
2022/04/01 06:00:05;;;;;;;6.43;3.00;;;;;;;0.28;92.39;100905.53;5093320;28;20030;-68
2022/04/01 06:03:02;;;;;;;6.78;2.90;;;;;;;0.51;92.36;100908.03;5093497;28;20390;-67
2022/04/01 06:05:43;;;;;;;7.32;3.33;;;;;;;0.47;91.70;100911.75;5075118;28;20031;-67
2022/04/01 06:08:44;;;;;;;7.38;2.85;;;;;;;0.60;91.97;100909.88;5075003;28;20020;-67
2022/04/01 06:11:33;;;;;;;4.75;2.58;;;;;;;0.46;90.74;100916.00;5093323;28;20099;-67
2022/04/01 06:14:04;;;;;;;5.60;2.90;;;;;;;0.63;91.20;100922.34;5074358;28;20051;-67
2022/04/01 06:16:40;;;;;;;6.05;2.80;;;;;;;0.75;90.27;100915.50;5074966;28;20020;-68
2022/04/01 06:19:06;;;;;;;6.68;2.70;;;;;;;0.79;90.07;100927.88;5075121;28;20067;-67
2022/04/01 06:21:38;;;;;;;6.68;2.88;;;;;;;0.87;89.49;100928.06;5092972;28;20074;-67
2022/04/01 06:24:11;;;;;;;5.25;2.63;;;;;;;0.97;88.99;100927.34;5074389;28;20523;-67
2022/04/01 06:26:40;;;;;;;4.82;2.40;;;;;;;1.21;88.60;100933.06;5092746;28;20119;-66
2022/04/01 06:29:16;;;;;;;4.03;2.47;;;;;;;1.20;87.08;100941.59;5092960;28;20410;-67
2022/04/01 06:31:49;;;;;;;4.80;2.42;;;;;;;1.04;87.10;100931.03;5093112;28;20023;-67
2022/04/01 06:34:23;;;;;;;5.60;2.47;;;;;;;1.16;86.52;100929.25;5093035;28;20020;-67
2022/04/01 06:36:59;;;;;;;4.03;2.40;;;;;;;1.33;86.05;100931.28;5074741;28;20024;-69
2022/04/01 06:39:53;;;;;;;4.47;2.20;;;;;;;1.42;85.38;100940.72;5073259;28;20429;-68
2022/04/01 06:42:22;;;;;;;;;;;;;;;1.54;84.98;100941.47;5091606;28;20104;-67
2022/04/01 06:44:48;;;;;;;3.67;2.20;;;;;;;1.61;83.92;100940.00;5092715;28;19908;-67
2022/04/01 06:47:13;;;;;;;6.97;2.42;;;;;;;1.59;83.55;100941.91;5092776;28;20028;-67
2022/04/01 06:49:39;;;;;;;5.63;2.35;;;;;;;1.93;82.57;100945.03;5074578;28;20035;-69
2022/04/01 06:52:04;;;;;;;4.15;2.00;;;;;;;2.11;82.20;100942.72;5092490;28;20044;-67
2022/04/01 06:54:30;;;;;;;7.68;2.40;;;;;;;2.14;80.61;100942.44;5090273;28;20034;-67
2022/04/01 06:56:56;;;;;;;3.78;1.95;;;;;;;2.23;80.13;100946.78;5073908;28;20020;-67
2022/04/01 06:59:21;;;;;;;4.97;2.00;;;;;;;2.58;79.28;100942.19;5092532;28;20028;-68
2022/04/01 07:01:46;;;;;;;4.43;2.03;;;;;;;2.78;78.59;100945.59;5091978;28;20028;-65
2022/04/01 07:04:14;;;;;;;5.13;2.40;;;;;;;2.92;79.04;100952.88;5073193;28;20052;-69
2022/04/01 07:06:39;;;;;;;5.40;1.75;;;;;;;2.89;76.28;100958.25;5092396;28;20024;-67
2022/04/01 07:09:05;;;;;;;5.05;2.10;;;;;;;3.35;75.53;100964.44;5077395;28;20032;-67
2022/04/01 07:11:30;;;;;;;5.03;1.80;;;;;;;3.89;74.26;100960.47;5096269;28;20477;-67
2022/04/01 07:13:55;;;;;;;5.82;2.10;;;;;;;4.18;72.47;100944.22;5096529;28;20118;-68
2022/04/01 07:16:21;;;;;;;5.63;2.03;;;;;;;3.38;73.09;100959.06;5096502;28;20069;-67
2022/04/01 07:18:46;;;;;;;5.72;2.03;;;;;;;3.58;74.02;100963.22;5078097;28;20112;-67
2022/04/01 07:21:13;;;;;;;4.20;1.55;;;;;;;4.41;70.83;100957.44;5096442;28;20411;-67
2022/04/01 07:23:38;;;;;;;5.88;1.98;;;;;;;3.73;73.56;100973.00;5078473;28;20028;-66
2022/04/01 07:26:03;;;;;;;4.68;1.48;;;;;;;3.10;73.48;100971.69;5096194;28;20028;-68
2022/04/01 07:28:29;;;;;;;6.30;1.85;;;;;;;3.15;75.06;100972.09;5077699;28;20045;-67
2022/04/01 07:30:55;;;;;;;4.90;1.67;;;;;;;3.05;74.22;100968.75;5095662;28;20383;-68
2022/04/01 07:33:20;;;;;;;3.70;2.00;;;;;;;3.14;74.51;100972.25;5077503;28;20028;-67
2022/04/01 07:35:47;;;;;;;5.80;1.75;;;;;;;3.27;74.43;100983.00;5075665;28;20030;-68
2022/04/01 07:38:13;;;;;;;4.43;1.60;;;;;;;3.19;74.09;100982.84;5092688;28;20024;-67
2022/04/01 07:40:39;;;;;;;2.13;1.45;;;;;;;3.31;73.57;100992.00;5075044;28;20020;-69
2022/04/01 07:43:05;;;;;;;4.32;1.52;;;;;;;3.42;73.17;100980.03;5091136;28;20463;-69
2022/04/01 07:45:33;;;;;;;3.70;1.90;;;;;;;3.42;71.68;100990.25;5092029;28;20396;-68
2022/04/01 07:47:58;;;;;;;4.35;1.70;;;;;;;3.26;72.52;100993.34;5073776;28;20044;-70
2022/04/01 07:50:24;;;;;;;5.82;1.77;;;;;;;3.07;72.20;100989.03;5093498;28;20360;-68
2022/04/01 07:52:49;;;;;;;5.68;1.48;;;;;;;3.65;70.79;100996.69;5094714;28;20126;-69
2022/04/01 07:55:16;;;;;;;4.57;1.70;;;;;;;3.53;71.40;100995.22;5094904;28;20028;-68
2022/04/01 07:57:45;;;;;;;2.45;1.65;;;;;;;3.75;70.44;100991.59;5094428;28;20042;-69
2022/04/01 08:00:11;;;;;;;3.92;1.52;;;;;;;4.01;69.66;101009.69;5077249;28;20020;-68
2022/04/01 08:02:36;;;;;;;4.63;1.75;;;;;;;4.19;68.82;101004.66;5095745;28;20028;-67
2022/04/01 08:05:02;;;;;;;4.28;1.70;;;;;;;4.14;70.07;101011.94;5077384;28;20065;-68
2022/04/01 08:07:27;;;;;;;3.55;1.75;;;;;;;3.57;70.57;101007.59;5095391;28;20028;-68
2022/04/01 08:09:53;;;;;;;5.10;1.90;;;;;;;3.73;70.40;101013.91;5077163;28;20165;-68
2022/04/01 08:12:19;;;;;;;3.65;1.73;;;;;;;4.49;69.57;101001.84;5076906;28;20524;-68
2022/04/01 08:14:44;;;;;;;4.72;1.48;;;;;;;3.92;68.28;101013.88;5095376;28;20024;-67
2022/04/01 08:17:14;;;;;;;4.78;1.77;;;;;;;4.83;67.32;101011.50;5077025;28;20055;-68
2022/04/01 08:19:40;;;;;;;6.80;1.88;;;;;;;4.95;64.13;101015.50;5076866;28;20016;-68
2022/04/01 08:22:07;;;;;;;2.67;1.45;;;;;;;4.07;68.45;101021.94;5095286;28;20025;-68
2022/04/01 08:24:32;;;;;;;4.63;1.80;;;;;;;4.24;69.98;101022.97;5095018;28;20050;-68
2022/04/01 08:27:00;;;;;;;3.83;1.77;;;;;;;3.39;70.31;101030.47;5095068;28;20020;-68
2022/04/01 08:29:26;;;;;;;6.07;1.60;;;;;;;4.25;70.55;101025.38;5075729;28;20028;-67
2022/04/01 08:31:51;;;;;;;6.20;2.13;;;;;;;3.36;71.42;101042.69;5076807;28;20028;-69
2022/04/01 08:34:16;;;;;;;3.85;1.58;;;;;;;3.70;70.59;101040.53;5076827;28;20024;-67
2022/04/01 08:36:42;;;;;;;4.35;2.00;;;;;;;3.66;71.62;101048.63;5094823;28;20082;-67
2022/04/01 08:39:07;;;;;;;2.45;1.52;;;;;;;3.73;69.77;101052.25;5076775;28;20039;-67
2022/04/01 08:41:32;;;;;;;4.72;1.70;;;;;;;4.00;70.79;101051.53;5092894;28;20444;-69
2022/04/01 08:43:58;;;;;;;3.28;1.70;;;;;;;4.15;71.32;101057.06;5074956;28;20036;-67
2022/04/01 08:46:24;;;;;;;3.33;1.85;;;;;;;4.04;70.26;101071.59;5074844;28;20390;-68
2022/04/01 08:48:50;;;;;;;3.85;1.92;;;;;;;5.29;67.98;101066.09;5076106;28;20031;-71
2022/04/01 08:51:16;;;;;;;4.30;2.15;;;;;;;5.11;65.42;101067.84;5075485;28;20438;-70
2022/04/01 08:53:44;;;;;;;3.40;1.85;;;;;;;5.65;64.19;101069.47;5094003;28;20028;-69
2022/04/01 08:56:10;;;;;;;5.10;1.98;;;;;;;6.51;64.98;101073.94;5058619;28;20054;-71
2022/04/01 08:58:35;;;;;;;8.02;1.83;;;;;;;5.99;63.20;101073.16;5059426;28;20024;-69
2022/04/01 09:01:03;;;;;;;7.70;1.73;;;;;;;6.02;62.90;101088.25;5094663;28;20379;-68
2022/04/01 09:03:29;;;;;;;7.03;2.08;;;;;;;6.48;65.44;101091.44;5076288;28;20024;-68
2022/04/01 09:05:57;;;;;;;5.15;2.70;;;;;;;5.53;65.67;101092.94;5076162;28;20551;-69
2022/04/01 09:08:25;;;;;;;2.85;1.83;;;;;;;5.08;66.34;101096.31;5094261;28;20035;-69
2022/04/01 09:10:51;;;;;;;3.55;1.70;;;;;;;5.02;67.30;101094.31;5076190;28;20024;-69
2022/04/01 09:13:17;;;;;;;4.55;1.60;;;;;;;5.04;66.92;101106.03;5076023;28;20024;-70
2022/04/01 09:15:43;;;;;;;3.08;1.67;;;;;;;5.59;67.06;101103.41;5076057;28;20408;-71
2022/04/01 09:18:09;;;;;;;4.15;1.90;;;;;;;5.83;65.13;101102.81;5094144;28;20035;-69
2022/04/01 09:20:46;;;;;;;4.05;1.80;;;;;;;5.19;67.05;101101.25;5093972;28;20028;-69
2022/04/01 09:23:12;;;;;;;6.75;1.80;;;;;;;4.93;67.48;101114.72;5094142;28;20024;-68
2022/04/01 09:25:48;;;;;;;6.35;2.00;;;;;;;4.75;70.40;101121.53;5093950;28;20020;-71
2022/04/01 09:28:29;;;;;;;5.22;2.10;;;;;;;4.62;69.92;101119.28;5093890;28;20047;-70
2022/04/01 09:31:15;;;;;;;3.85;1.90;;;;;;;3.87;71.62;101143.88;5075028;28;20509;-70
2022/04/01 09:33:43;;;;;;;4.82;2.00;;;;;;;4.73;70.80;101133.66;5090754;28;20032;-69
2022/04/01 09:36:12;;;;;;;4.68;2.00;;;;;;;4.98;68.47;101133.03;5093856;28;20478;-69
2022/04/01 09:38:37;;;;;;;2.38;1.73;;;;;;;6.39;66.38;101129.09;5093583;28;20020;-70
2022/04/01 09:41:04;;;;;;;4.18;1.92;;;;;;;6.46;65.95;101142.91;5092974;28;20032;-70
2022/04/01 09:43:37;;;;;;;4.45;2.00;;;;;;;6.33;65.84;101138.19;5094607;28;20031;-70
2022/04/01 09:46:05;;;;;;;2.65;1.50;;;;;;;5.25;67.07;101133.16;5093513;28;20028;-69
2022/04/01 09:48:39;;;;;;;3.42;1.80;;;;;;;6.21;65.85;101153.97;5093540;28;20035;-68
2022/04/01 09:51:04;;;;;;;4.88;1.95;;;;;;;6.20;63.87;101137.75;5072943;28;20166;-71
2022/04/01 09:53:29;;;;;;;4.47;1.75;;;;;;;5.77;66.38;101148.75;5093006;28;20062;-68
2022/04/01 09:55:55;;;;;;;3.72;1.80;;;;;;;5.86;66.21;101150.44;5093636;28;20523;-69
2022/04/01 09:58:22;;;;;;;2.63;1.52;;;;;;;5.49;67.17;101163.38;5092972;28;20489;-70
2022/04/01 10:00:48;;;;;;;5.00;1.67;;;;;;;5.74;66.53;101159.31;5093181;28;20518;-69
2022/04/01 10:03:15;;;;;;;3.22;1.90;;;;;;;5.94;67.93;101165.13;5075251;28;20031;-68
2022/04/01 10:05:41;;;;;;;3.72;1.70;;;;;;;5.01;68.87;101164.44;5075189;28;20019;-70
2022/04/01 10:08:09;;;;;;;2.70;1.70;;;;;;;4.87;70.73;101166.50;5093304;28;20028;-68
2022/04/01 10:10:35;;;;;;;3.70;1.90;;;;;;;4.53;69.72;101161.06;5093041;28;20028;-69
2022/04/01 10:13:03;;;;;;;8.82;1.88;;;;;;;5.62;67.69;101164.66;5075076;28;20150;-70
2022/04/01 10:15:31;;;;;;;3.55;1.85;;;;;;;6.45;66.16;101163.63;5057485;28;20483;-70
2022/04/01 10:17:58;;;;;;;2.75;2.05;;;;;;;6.70;66.09;101167.97;5075066;28;20081;-69
2022/04/01 10:20:34;;;;;;;4.13;2.17;;;;;;;7.00;63.39;101174.34;5074868;28;20039;-69
2022/04/01 10:23:08;;;;;;;4.97;1.67;;;;;;;7.32;62.79;101175.44;5074920;28;20494;-68
2022/04/01 10:26:05;;;;;;;3.00;1.67;;;;;;;7.28;65.71;101175.91;5093168;28;20487;-69
2022/04/01 10:28:31;;;;;;;3.00;1.88;;;;;;;7.63;61.78;101167.97;5055651;28;20494;-69
2022/04/01 10:30:58;;;;;;;3.95;2.15;;;;;;;7.44;64.29;101178.53;5092930;28;20055;-70
2022/04/01 10:33:36;;;;;;;4.75;1.85;;;;;;;6.27;65.66;101185.00;5092767;28;20024;-67
2022/04/01 10:36:20;;;;;;;2.85;1.80;;;;;;;6.38;66.45;101175.44;5092818;28;20024;-70
2022/04/01 10:38:48;;;;;;;2.22;1.58;;;;;;;5.79;66.29;101183.56;5090163;28;20066;-70
2022/04/01 10:41:15;;;;;;;4.70;1.90;;;;;;;5.57;66.55;101168.59;5072787;28;20038;-69
2022/04/01 10:43:50;;;;;;;3.22;1.90;;;;;;;4.94;67.19;101177.78;5078514;28;20035;-70
2022/04/01 10:46:17;;;;;;;6.10;1.90;;;;;;;4.41;69.91;101182.63;5096179;28;20028;-70
2022/04/01 10:52:13;;;;;;;3.85;2.38;;;;;;;6.10;66.48;101190.94;5094522;28;20108;-69
2022/04/01 10:54:43;;;;;;;3.67;2.10;;;;;;;5.08;68.85;101161.16;5076046;28;20066;-70
2022/04/01 10:57:14;;;;;;;2.65;1.80;;;;;;;5.22;70.85;101194.97;5075896;28;20072;-68
2022/04/01 10:59:43;;;;;;;6.95;2.30;;;;;;;6.45;67.53;101182.38;5094071;28;20540;-69
2022/04/01 11:02:13;;;;;;;3.80;2.25;;;;;;;6.07;66.15;101192.03;5094626;28;20055;-70
2022/04/01 11:04:41;;;;;;;4.53;2.83;;;;;;;4.72;68.29;101193.50;5076730;28;20035;-69
2022/04/01 11:07:11;;;;;;;3.33;2.35;;;;;;;4.62;69.37;101187.59;5094596;28;20035;-70
2022/04/01 11:09:40;;;;;;;4.38;2.60;;;;;;;4.34;70.24;101192.59;5094761;28;20303;-67
2022/04/01 11:12:15;;;;;;;4.03;2.83;;;;;;;5.01;70.52;101195.97;5078266;28;20020;-69
2022/04/01 11:15:07;;;;;;;4.82;2.75;;;;;;;4.73;70.05;101190.78;5078265;28;20058;-69
2022/04/01 11:17:41;;;;;;;5.05;2.80;;;;;;;4.37;69.24;101196.63;5096561;28;20309;-68
2022/04/01 11:20:19;;;;;;;4.95;3.08;;;;;;;4.04;69.67;101189.25;5078133;28;20039;-68
2022/04/01 11:22:59;;;;;;;7.68;3.78;;;;;;;3.98;69.00;101187.22;5078082;28;20490;-67
2022/04/01 11:25:24;;;;;;;6.15;3.17;;;;;;;4.40;68.44;101198.91;5077413;28;20029;-68
2022/04/01 11:27:50;;;;;;;6.07;3.30;;;;;;;4.37;66.99;101194.88;5077152;28;20047;-69
2022/04/01 11:30:20;;;;;;;5.38;3.20;;;;;;;4.10;68.78;101200.69;5096033;28;20020;-69
2022/04/01 11:32:48;;;;;;;6.95;3.70;;;;;;;3.94;68.73;101208.91;5061312;28;20050;-68
2022/04/01 11:35:16;;;;;;;5.82;3.65;;;;;;;4.03;68.35;101213.22;5096330;28;20112;-69
2022/04/01 11:37:45;;;;;;;6.97;3.67;;;;;;;4.05;68.36;101208.75;5077801;28;20055;-70
2022/04/01 11:40:25;;;;;;;7.80;3.75;;;;;;;4.16;67.06;101210.38;5077698;28;20020;-68
2022/04/01 11:42:58;;;;;;;7.10;3.90;;;;;;;4.17;67.42;101219.69;5079331;28;20034;-69
2022/04/01 11:45:25;;;;;;;7.00;3.78;;;;;;;4.10;67.12;101205.81;5077553;28;20050;-69
2022/04/01 11:47:50;;;;;;;7.25;3.78;;;;;;;4.03;66.79;101209.84;5095935;28;20117;-68